createdAt,value
2023-08-27T00:00:15.640Z,3.97
2023-08-27T00:02:43.108Z,4.20
2023-08-27T00:05:11.117Z,3.58
2023-08-27T00:07:38.613Z,3.90
2023-08-27T00:10:06.574Z,3.67
2023-08-27T00:12:34.083Z,3.65
2023-08-27T00:15:01.764Z,3.90
2023-08-27T00:17:29.205Z,4.00
2023-08-27T00:19:56.747Z,3.90
2023-08-27T00:22:24.171Z,3.88
2023-08-27T00:24:51.669Z,3.30
2023-08-27T00:27:19.092Z,4.18
2023-08-27T00:29:47.609Z,3.70
2023-08-27T00:32:26.054Z,3.45
2023-08-27T00:34:54.129Z,3.60
2023-08-27T00:37:23.459Z,3.22
2023-08-27T00:39:51.090Z,3.90
2023-08-27T00:42:18.598Z,3.95
2023-08-27T00:44:46.148Z,3.75
2023-08-27T00:47:14.734Z,3.60
2023-08-27T00:49:43.732Z,3.42
2023-08-27T00:52:12.151Z,3.50
2023-08-27T00:54:42.171Z,3.35
2023-08-27T00:57:10.605Z,3.35
2023-08-27T00:59:38.156Z,3.53
2023-08-27T01:02:06.139Z,3.28
2023-08-27T01:04:33.673Z,3.22
2023-08-27T01:07:08.850Z,3.17
2023-08-27T01:09:45.948Z,3.45
2023-08-27T01:12:21.440Z,3.63
2023-08-27T01:14:51.832Z,3.65
2023-08-27T01:17:23.307Z,3.97
2023-08-27T01:19:51.201Z,3.60
2023-08-27T01:22:18.985Z,3.60
2023-08-27T01:24:46.450Z,3.80
2023-08-27T01:27:37.191Z,3.70
2023-08-27T01:30:21.929Z,3.60
2023-08-27T01:33:19.425Z,3.97
2023-08-27T01:35:47.893Z,3.83
2023-08-27T01:38:15.485Z,3.97
2023-08-27T01:40:43.014Z,3.72
2023-08-27T01:43:10.430Z,3.30
2023-08-27T01:45:37.914Z,3.85
2023-08-27T01:48:05.877Z,3.78
2023-08-27T01:50:33.761Z,3.90
2023-08-27T01:53:01.367Z,3.70
2023-08-27T01:55:29.268Z,3.90
2023-08-27T01:57:56.778Z,3.38
2023-08-27T02:00:24.360Z,4.20
2023-08-27T02:02:52.397Z,4.18
2023-08-27T02:05:19.918Z,3.72
2023-08-27T02:07:47.430Z,3.75
2023-08-27T02:10:14.983Z,3.70
2023-08-27T02:12:42.436Z,3.60
2023-08-27T02:15:10.259Z,3.95
2023-08-27T02:17:39.536Z,3.47
2023-08-27T02:20:11.507Z,3.67
2023-08-27T02:22:39.009Z,3.53
2023-08-27T02:25:07.777Z,3.78
2023-08-27T02:27:35.341Z,3.63
2023-08-27T02:30:02.817Z,3.67
2023-08-27T02:32:30.420Z,3.28
2023-08-27T02:34:58.081Z,3.92
2023-08-27T02:37:26.145Z,3.55
2023-08-27T02:39:53.458Z,3.47
2023-08-27T02:42:21.069Z,3.58
2023-08-27T02:44:48.423Z,3.60
2023-08-27T02:47:15.927Z,3.22
2023-08-27T02:49:43.844Z,3.28
2023-08-27T02:52:11.249Z,3.22
2023-08-27T02:54:38.694Z,3.58
2023-08-27T02:57:06.443Z,3.15
2023-08-27T02:59:34.320Z,3.38
2023-08-27T03:02:01.876Z,3.40
2023-08-27T03:04:29.443Z,3.60
2023-08-27T03:06:56.814Z,3.42
2023-08-27T03:09:24.288Z,3.67
2023-08-27T03:11:51.747Z,3.45
2023-08-27T03:14:19.463Z,3.38
2023-08-27T03:16:46.929Z,3.50
2023-08-27T03:19:14.418Z,3.35
2023-08-27T03:21:41.873Z,3.38
2023-08-27T03:24:09.452Z,3.03
2023-08-27T03:26:37.107Z,2.92
2023-08-27T03:29:05.425Z,3.30
2023-08-27T03:31:32.862Z,3.03
2023-08-27T03:34:00.383Z,3.25
2023-08-27T03:36:27.975Z,2.95
2023-08-27T03:38:56.012Z,2.90
2023-08-27T03:41:23.857Z,3.03
2023-08-27T03:43:51.433Z,3.17
2023-08-27T03:46:19.021Z,3.28
2023-08-27T03:48:46.498Z,3.42
2023-08-27T03:51:13.844Z,3.30
2023-08-27T03:53:41.454Z,3.30
2023-08-27T03:56:08.785Z,3.35
2023-08-27T03:58:36.534Z,3.53
2023-08-27T04:01:04.153Z,3.05
2023-08-27T04:03:31.651Z,3.25
2023-08-27T04:05:59.189Z,3.67
2023-08-27T04:08:26.705Z,3.45
2023-08-27T04:10:54.917Z,3.10
2023-08-27T04:13:22.363Z,3.28
2023-08-27T04:16:05.380Z,3.38
2023-08-27T04:18:34.508Z,3.25
2023-08-27T04:21:02.398Z,3.78
2023-08-27T04:23:30.082Z,3.33
2023-08-27T04:25:57.828Z,3.30
2023-08-27T04:28:25.334Z,3.25
2023-08-27T04:30:52.856Z,3.22
2023-08-27T04:33:20.401Z,3.50
2023-08-27T04:35:51.084Z,3.40
2023-08-27T04:38:18.657Z,3.22
2023-08-27T04:40:51.774Z,3.03
2023-08-27T04:43:19.504Z,3.58
2023-08-27T04:45:47.061Z,3.53
2023-08-27T04:48:14.563Z,3.22
2023-08-27T04:50:45.952Z,3.70
2023-08-27T04:53:13.813Z,3.33
2023-08-27T04:55:41.314Z,3.45
2023-08-27T04:58:10.055Z,3.33
2023-08-27T05:00:37.559Z,3.20
2023-08-27T05:03:05.465Z,3.72
2023-08-27T05:05:33.040Z,3.65
2023-08-27T05:08:00.988Z,3.65
2023-08-27T05:10:28.717Z,3.60
2023-08-27T05:12:56.335Z,3.47
2023-08-27T05:15:23.712Z,3.78
2023-08-27T05:17:51.144Z,4.13
2023-08-27T05:20:18.939Z,4.10
2023-08-27T05:22:46.347Z,3.72
2023-08-27T05:25:13.849Z,4.30
2023-08-27T05:27:45.774Z,4.00
2023-08-27T05:30:15.994Z,3.72
2023-08-27T05:32:44.747Z,4.03
2023-08-27T05:35:12.785Z,3.92
2023-08-27T05:37:40.595Z,5.13
2023-08-27T05:40:10.106Z,5.32
2023-08-27T05:42:37.973Z,4.78
2023-08-27T05:45:05.773Z,5.45
2023-08-27T05:47:33.696Z,4.50
2023-08-27T05:50:01.097Z,5.15
2023-08-27T05:52:28.721Z,6.00
2023-08-27T05:54:56.166Z,6.68
2023-08-27T05:57:23.618Z,6.07
2023-08-27T05:59:51.238Z,5.63
2023-08-27T06:02:19.304Z,5.75
2023-08-27T06:04:46.966Z,5.90
2023-08-27T06:07:14.573Z,6.50
2023-08-27T06:09:42.220Z,6.35
2023-08-27T06:12:09.686Z,7.95
2023-08-27T06:14:37.195Z,6.68
2023-08-27T06:17:05.019Z,6.20
2023-08-27T06:19:46.438Z,7.55
2023-08-27T06:22:17.699Z,6.40
2023-08-27T06:24:45.986Z,6.18
2023-08-27T06:27:16.290Z,7.18
2023-08-27T06:32:17.579Z,5.95
2023-08-27T06:34:45.634Z,5.95
2023-08-27T06:37:13.270Z,5.43
2023-08-27T06:39:40.799Z,6.68
2023-08-27T06:42:08.432Z,7.60
2023-08-27T06:44:35.933Z,5.57
2023-08-27T06:47:03.349Z,6.45
2023-08-27T06:49:30.746Z,6.50
2023-08-27T06:51:58.299Z,7.28
2023-08-27T06:54:25.977Z,7.10
2023-08-27T06:56:53.421Z,6.65
2023-08-27T06:59:20.869Z,6.60
2023-08-27T07:01:48.535Z,7.07
2023-08-27T07:04:16.085Z,5.95
2023-08-27T07:06:43.604Z,5.20
2023-08-27T07:09:11.197Z,6.03
2023-08-27T07:11:39.792Z,6.55
2023-08-27T07:14:07.768Z,7.50
2023-08-27T07:16:35.308Z,6.40
2023-08-27T07:19:02.767Z,6.85
2023-08-27T07:21:30.176Z,7.18
2023-08-27T07:23:58.749Z,6.55
2023-08-27T07:26:26.722Z,7.60
2023-08-27T07:28:54.180Z,6.82
2023-08-27T07:31:21.647Z,6.93
2023-08-27T07:33:49.032Z,6.15
2023-08-27T07:36:16.544Z,6.95
2023-08-27T07:38:45.059Z,6.60
2023-08-27T07:41:15.133Z,7.82
2023-08-27T07:43:43.066Z,7.68
2023-08-27T07:46:10.570Z,7.80
2023-08-27T07:48:37.971Z,7.75
2023-08-27T07:51:05.560Z,6.13
2023-08-27T07:53:33.236Z,8.13
2023-08-27T07:56:00.590Z,6.63
2023-08-27T07:58:30.451Z,8.77
2023-08-27T08:01:04.197Z,8.98
2023-08-27T08:03:32.581Z,6.68
2023-08-27T08:06:00.148Z,7.00
2023-08-27T08:08:27.481Z,7.43
2023-08-27T08:10:58.318Z,8.48
2023-08-27T08:13:26.321Z,7.45
2023-08-27T08:15:54.313Z,8.52
2023-08-27T08:18:21.899Z,7.65
2023-08-27T08:20:49.271Z,7.95
2023-08-27T08:23:16.875Z,7.15
2023-08-27T08:25:44.999Z,8.20
2023-08-27T08:28:12.454Z,8.00
2023-08-27T08:30:46.996Z,8.60
2023-08-27T08:33:14.581Z,7.90
2023-08-27T08:35:43.005Z,8.15
2023-08-27T08:38:10.654Z,7.40
2023-08-27T08:40:48.412Z,7.28
2023-08-27T08:43:28.457Z,7.38
2023-08-27T08:46:07.832Z,8.27
2023-08-27T08:48:43.653Z,8.10
2023-08-27T08:51:13.579Z,7.57
2023-08-27T08:53:46.437Z,8.65
2023-08-27T08:56:24.545Z,8.52
2023-08-27T08:58:58.094Z,8.50
2023-08-27T09:01:26.462Z,8.00
2023-08-27T09:03:54.128Z,9.30
2023-08-27T09:06:22.360Z,8.07
2023-08-27T09:08:54.109Z,8.57
2023-08-27T09:11:22.180Z,7.90
2023-08-27T09:13:49.735Z,7.45
2023-08-27T09:16:17.107Z,8.10
2023-08-27T09:18:44.860Z,8.30
2023-08-27T09:21:12.707Z,8.70
2023-08-27T09:23:40.634Z,8.45
2023-08-27T09:26:08.961Z,7.63
2023-08-27T09:28:36.755Z,9.82
2023-08-27T09:31:04.008Z,8.23
2023-08-27T09:33:44.349Z,9.25
2023-08-27T09:38:40.940Z,8.68
2023-08-27T09:41:17.625Z,8.07
2023-08-27T09:43:57.340Z,8.02
2023-08-27T09:46:24.554Z,9.20
2023-08-27T09:49:03.012Z,9.52
2023-08-27T09:51:30.990Z,7.57
2023-08-27T09:53:58.596Z,8.73
2023-08-27T09:56:27.161Z,8.45
2023-08-27T09:58:55.754Z,7.50
2023-08-27T10:01:24.806Z,9.00
2023-08-27T10:03:52.426Z,8.07
2023-08-27T10:06:20.320Z,7.90
2023-08-27T10:08:50.134Z,7.45
2023-08-27T10:11:19.221Z,7.13
2023-08-27T10:13:46.611Z,7.88
2023-08-27T10:16:14.799Z,7.55
2023-08-27T10:18:42.710Z,8.80
2023-08-27T10:21:12.935Z,7.57
2023-08-27T10:23:41.196Z,7.75
2023-08-27T10:26:09.996Z,6.32
2023-08-27T10:28:37.760Z,6.45
2023-08-27T10:31:05.347Z,7.03
2023-08-27T10:33:33.690Z,6.93
2023-08-27T10:36:07.862Z,6.35
2023-08-27T10:38:38.618Z,6.35
2023-08-27T10:41:07.929Z,6.10
2023-08-27T10:43:36.623Z,5.95
2023-08-27T10:46:17.896Z,7.15
2023-08-27T10:48:53.151Z,8.13
2023-08-27T10:51:23.003Z,6.25
2023-08-27T10:53:50.649Z,6.93
2023-08-27T10:56:34.650Z,7.47
2023-08-27T10:59:04.508Z,7.40
2023-08-27T11:01:38.971Z,8.10
2023-08-27T11:04:09.064Z,6.30
2023-08-27T11:06:46.200Z,6.65
2023-08-27T11:09:23.190Z,7.93
2023-08-27T11:12:05.670Z,6.97
2023-08-27T11:14:40.793Z,7.53
2023-08-27T11:17:08.913Z,6.80
2023-08-27T11:19:38.548Z,7.90
2023-08-27T11:22:15.551Z,8.45
2023-08-27T11:24:50.273Z,7.10
2023-08-27T11:27:19.676Z,6.18
2023-08-27T11:29:55.063Z,7.13
2023-08-27T11:32:22.896Z,7.70
2023-08-27T11:34:52.858Z,8.45
2023-08-27T11:37:23.590Z,8.38
2023-08-27T11:39:51.138Z,7.68
2023-08-27T11:42:19.053Z,7.15
2023-08-27T11:44:51.314Z,6.82
2023-08-27T11:47:20.427Z,7.32
2023-08-27T11:49:48.237Z,8.25
2023-08-27T11:52:16.536Z,7.20
2023-08-27T11:54:44.934Z,7.15
2023-08-27T11:57:12.645Z,7.20
2023-08-27T11:59:40.615Z,6.60
2023-08-27T12:02:09.042Z,7.53
2023-08-27T12:04:36.997Z,6.72
2023-08-27T12:07:06.673Z,6.10
2023-08-27T12:09:35.107Z,5.50
2023-08-27T12:12:07.922Z,5.75
2023-08-27T12:14:36.485Z,5.55
2023-08-27T12:17:06.860Z,5.13
2023-08-27T12:19:34.753Z,5.60
2023-08-27T12:22:02.245Z,6.78
2023-08-27T12:24:36.508Z,6.43
2023-08-27T12:27:08.695Z,6.13
2023-08-27T12:29:39.743Z,5.35
2023-08-27T12:32:20.842Z,5.68
2023-08-27T12:34:53.159Z,5.55
2023-08-27T12:37:21.839Z,5.45
2023-08-27T12:39:49.617Z,6.22
2023-08-27T12:42:17.472Z,6.15
2023-08-27T12:44:50.685Z,5.90
2023-08-27T12:47:18.716Z,5.82
2023-08-27T12:49:46.745Z,6.10
2023-08-27T12:52:14.799Z,6.28
2023-08-27T12:54:43.095Z,6.60
2023-08-27T12:57:12.260Z,5.72
2023-08-27T12:59:39.764Z,5.65
2023-08-27T13:02:08.870Z,5.75
2023-08-27T13:04:36.519Z,5.82
2023-08-27T13:07:04.076Z,6.55
2023-08-27T13:09:31.822Z,7.38
2023-08-27T13:11:59.284Z,6.82
2023-08-27T13:14:26.721Z,8.07
2023-08-27T13:16:54.286Z,6.72
2023-08-27T13:19:21.705Z,8.15
2023-08-27T13:21:49.706Z,8.48
2023-08-27T13:24:18.407Z,7.40
2023-08-27T13:26:50.578Z,7.60
2023-08-27T13:29:18.060Z,7.18
2023-08-27T13:31:45.645Z,6.95
2023-08-27T13:34:13.393Z,7.43
2023-08-27T13:36:40.798Z,7.35
2023-08-27T13:39:08.403Z,6.25
2023-08-27T13:41:38.218Z,6.93
2023-08-27T13:44:06.732Z,7.53
2023-08-27T13:46:34.509Z,7.15
2023-08-27T13:49:02.340Z,6.20
2023-08-27T13:51:30.095Z,7.53
2023-08-27T13:53:58.047Z,6.38
2023-08-27T13:56:25.559Z,6.25
2023-08-27T13:58:53.106Z,6.15
2023-08-27T14:01:25.895Z,7.18
2023-08-27T14:03:53.801Z,6.47
2023-08-27T14:06:21.460Z,6.70
2023-08-27T14:08:49.490Z,6.50
2023-08-27T14:11:16.978Z,6.68
2023-08-27T14:13:45.799Z,6.25
2023-08-27T14:16:13.818Z,6.13
2023-08-27T14:18:41.497Z,5.82
2023-08-27T14:21:10.311Z,5.55
2023-08-27T14:23:38.324Z,6.55
2023-08-27T14:26:05.690Z,5.40
2023-08-27T14:28:32.988Z,5.40
2023-08-27T14:31:00.336Z,5.90
2023-08-27T14:33:27.480Z,5.53
2023-08-27T14:35:55.033Z,6.53
2023-08-27T14:38:22.328Z,6.10
2023-08-27T14:40:49.834Z,6.13
2023-08-27T14:43:17.267Z,6.40
2023-08-27T14:45:44.735Z,6.05
2023-08-27T14:48:12.351Z,5.53
2023-08-27T14:50:39.803Z,5.95
2023-08-27T14:53:08.478Z,5.72
2023-08-27T14:55:35.937Z,6.22
2023-08-27T14:58:03.700Z,5.57
2023-08-27T15:00:31.515Z,5.47
2023-08-27T15:02:59.621Z,5.85
2023-08-27T15:05:27.039Z,5.93
2023-08-27T15:07:54.486Z,6.15
2023-08-27T15:10:22.009Z,5.53
2023-08-27T15:12:49.508Z,5.97
2023-08-27T15:15:17.270Z,6.15
2023-08-27T15:17:44.788Z,5.90
2023-08-27T15:20:12.667Z,6.05
2023-08-27T15:22:40.248Z,5.90
2023-08-27T15:25:08.160Z,5.85
2023-08-27T15:27:35.613Z,5.90
2023-08-27T15:30:06.259Z,5.38
2023-08-27T15:32:33.877Z,5.57
2023-08-27T15:35:02.542Z,5.53
2023-08-27T15:37:30.782Z,5.30
2023-08-27T15:39:58.989Z,5.43
2023-08-27T15:42:32.026Z,5.70
2023-08-27T15:45:00.177Z,5.32
2023-08-27T15:47:32.733Z,5.20
2023-08-27T15:50:00.879Z,5.35
2023-08-27T15:52:28.640Z,5.15
2023-08-27T15:54:57.091Z,5.63
2023-08-27T15:57:24.524Z,5.97
2023-08-27T15:59:51.942Z,6.72
2023-08-27T16:02:19.421Z,8.60
2023-08-27T16:04:46.965Z,8.57
2023-08-27T16:07:14.457Z,8.40
2023-08-27T16:09:41.869Z,9.95
2023-08-27T16:12:09.542Z,11.23
2023-08-27T16:14:37.134Z,11.10
2023-08-27T16:17:06.187Z,11.52
2023-08-27T16:19:33.594Z,10.65
2023-08-27T16:22:01.006Z,10.40
2023-08-27T16:24:28.801Z,9.68
2023-08-27T16:26:56.308Z,9.90
2023-08-27T16:29:23.763Z,9.65
2023-08-27T16:31:51.211Z,9.00
2023-08-27T16:34:18.727Z,8.35
2023-08-27T16:36:46.215Z,8.65
2023-08-27T16:39:14.453Z,8.55
2023-08-27T16:41:41.900Z,8.90
2023-08-27T16:44:09.413Z,9.13
2023-08-27T16:46:37.015Z,8.25
2023-08-27T16:49:04.881Z,7.63
2023-08-27T16:51:32.500Z,8.32
2023-08-27T16:54:00.108Z,7.65
2023-08-27T16:56:27.669Z,8.27
2023-08-27T16:58:55.111Z,7.13
2023-08-27T17:01:22.595Z,7.38
2023-08-27T17:03:50.291Z,6.80
2023-08-27T17:06:18.410Z,7.30
2023-08-27T17:08:45.856Z,6.15
2023-08-27T17:11:17.459Z,5.93
2023-08-27T17:13:45.065Z,5.95
2023-08-27T17:16:12.691Z,6.50
2023-08-27T17:18:40.091Z,6.45
2023-08-27T17:21:07.637Z,6.43
2023-08-27T17:23:35.140Z,6.45
2023-08-27T17:26:02.610Z,6.85
2023-08-27T17:28:30.161Z,7.28
2023-08-27T17:30:59.015Z,7.40
2023-08-27T17:33:26.866Z,8.10
2023-08-27T17:35:54.259Z,9.07
2023-08-27T17:38:21.900Z,8.70
2023-08-27T17:40:52.707Z,10.15
2023-08-27T17:43:20.196Z,11.55
2023-08-27T17:45:47.909Z,10.98
2023-08-27T17:48:15.631Z,12.07
2023-08-27T17:50:46.264Z,12.10
2023-08-27T17:53:13.827Z,11.90
2023-08-27T17:55:41.280Z,10.57
2023-08-27T17:58:08.945Z,11.55
2023-08-27T18:00:36.446Z,10.45
2023-08-27T18:03:06.215Z,9.50
2023-08-27T18:05:33.780Z,9.30
2023-08-27T18:08:01.485Z,9.65
2023-08-27T18:10:29.086Z,8.88
2023-08-27T18:12:56.388Z,8.80
2023-08-27T18:15:23.888Z,9.05
2023-08-27T18:17:51.285Z,9.40
2023-08-27T18:20:19.060Z,9.52
2023-08-27T18:22:46.463Z,9.15
2023-08-27T18:25:14.059Z,9.20
2023-08-27T18:27:42.057Z,8.30
2023-08-27T18:30:09.911Z,7.60
2023-08-27T18:32:39.000Z,6.65
2023-08-27T18:35:07.164Z,6.50
2023-08-27T18:37:34.599Z,6.90
2023-08-27T18:40:01.975Z,6.97
2023-08-27T18:42:33.721Z,7.90
2023-08-27T18:45:01.661Z,8.10
2023-08-27T18:47:29.202Z,8.15
2023-08-27T18:49:56.866Z,8.75
2023-08-27T18:52:24.368Z,9.10
2023-08-27T18:54:51.886Z,9.10
2023-08-27T18:57:21.105Z,9.30
2023-08-27T18:59:51.608Z,8.70
2023-08-27T19:02:19.064Z,9.02
2023-08-27T19:04:47.058Z,8.63
2023-08-27T19:07:14.362Z,7.68
2023-08-27T19:09:44.242Z,6.15
2023-08-27T19:12:11.741Z,5.53
2023-08-27T19:14:39.293Z,5.43
2023-08-27T19:17:06.890Z,5.25
2023-08-27T19:19:34.403Z,5.43
2023-08-27T19:22:02.106Z,5.68
2023-08-27T19:24:29.588Z,5.63
2023-08-27T19:26:57.029Z,5.65
2023-08-27T19:29:24.609Z,4.82
2023-08-27T19:31:52.033Z,4.53
2023-08-27T19:34:19.763Z,4.88
2023-08-27T19:36:47.210Z,4.30
2023-08-27T19:39:14.738Z,4.72
2023-08-27T19:41:43.257Z,4.80
2023-08-27T19:44:10.601Z,4.82
2023-08-27T19:46:39.093Z,4.60
2023-08-27T19:49:06.552Z,4.43
2023-08-27T19:51:35.462Z,4.70
2023-08-27T19:54:03.078Z,4.82
2023-08-27T19:56:31.264Z,4.72
2023-08-27T19:58:58.921Z,4.75
2023-08-27T20:01:26.354Z,4.57
2023-08-27T20:03:53.770Z,4.32
2023-08-27T20:06:21.230Z,4.38
2023-08-27T20:08:48.800Z,5.13
2023-08-27T20:11:16.411Z,4.80
2023-08-27T20:13:43.874Z,4.93
2023-08-27T20:16:11.432Z,4.35
2023-08-27T20:18:39.070Z,4.85
2023-08-27T20:21:06.596Z,4.38
2023-08-27T20:23:33.984Z,4.90
2023-08-27T20:26:02.001Z,4.72
2023-08-27T20:28:29.710Z,4.35
2023-08-27T20:30:57.215Z,4.50
2023-08-27T20:33:24.938Z,4.85
2023-08-27T20:35:52.588Z,4.43
2023-08-27T20:38:20.108Z,4.25
2023-08-27T20:40:47.503Z,4.60
2023-08-27T20:43:16.399Z,4.65
2023-08-27T20:45:44.588Z,3.85
2023-08-27T20:48:12.430Z,3.80
2023-08-27T20:50:40.511Z,4.00
2023-08-27T20:53:08.321Z,3.95
2023-08-27T20:55:35.994Z,4.20
2023-08-27T20:58:04.144Z,3.78
2023-08-27T21:00:31.552Z,4.03
2023-08-27T21:02:59.025Z,4.20
2023-08-27T21:05:26.959Z,4.15
2023-08-27T21:07:54.422Z,4.20
2023-08-27T21:10:24.079Z,4.53
2023-08-27T21:12:51.538Z,4.45
2023-08-27T21:15:19.137Z,4.68
2023-08-27T21:17:46.832Z,4.78
2023-08-27T21:20:14.560Z,4.05
2023-08-27T21:22:42.216Z,4.20
2023-08-27T21:25:09.989Z,4.20
2023-08-27T21:27:37.390Z,4.13
2023-08-27T21:30:05.048Z,3.72
2023-08-27T21:32:32.762Z,4.03
2023-08-27T21:35:00.438Z,3.80
2023-08-27T21:37:28.153Z,3.90
2023-08-27T21:39:55.584Z,3.55
2023-08-27T21:42:23.106Z,3.67
2023-08-27T21:44:50.412Z,3.90
2023-08-27T21:47:17.849Z,4.20
2023-08-27T21:49:45.272Z,4.28
2023-08-27T21:52:12.736Z,3.92
2023-08-27T21:54:40.331Z,4.10
2023-08-27T21:57:07.990Z,3.65
2023-08-27T21:59:35.505Z,4.15
2023-08-27T22:02:03.263Z,3.70
2023-08-27T22:04:30.773Z,4.30
2023-08-27T22:06:58.308Z,4.10
2023-08-27T22:09:26.172Z,4.10
2023-08-27T22:11:53.482Z,4.20
2023-08-27T22:14:21.660Z,3.83
2023-08-27T22:16:49.339Z,4.28
2023-08-27T22:19:23.526Z,3.78
2023-08-27T22:21:52.108Z,4.05
2023-08-27T22:24:19.458Z,3.83
2023-08-27T22:26:47.416Z,4.15
2023-08-27T22:29:15.078Z,4.30
2023-08-27T22:31:42.524Z,3.92
2023-08-27T22:34:10.197Z,4.03
2023-08-27T22:36:37.703Z,3.15
2023-08-27T22:39:05.171Z,3.53
2023-08-27T22:41:32.574Z,3.40
2023-08-27T22:44:00.130Z,3.35
2023-08-27T22:46:28.106Z,3.15
2023-08-27T22:48:55.596Z,2.75
2023-08-27T22:51:24.288Z,2.78
2023-08-27T22:53:51.895Z,2.22
2023-08-27T22:56:19.755Z,2.63
2023-08-27T22:58:47.324Z,2.85
2023-08-27T23:01:15.117Z,2.67
2023-08-27T23:03:42.650Z,2.67
2023-08-27T23:06:10.153Z,2.63
2023-08-27T23:08:37.697Z,2.58
2023-08-27T23:11:05.619Z,2.72
2023-08-27T23:13:33.176Z,2.60
2023-08-27T23:16:00.755Z,2.70
2023-08-27T23:18:28.336Z,2.88
2023-08-27T23:20:55.883Z,3.10
2023-08-27T23:23:24.147Z,3.08
2023-08-27T23:25:52.856Z,3.40
2023-08-27T23:28:20.878Z,3.38
2023-08-27T23:30:48.313Z,3.10
2023-08-27T23:33:15.920Z,3.03
2023-08-27T23:35:43.450Z,3.55
2023-08-27T23:38:10.916Z,3.25
2023-08-27T23:40:39.330Z,3.13
2023-08-27T23:43:06.771Z,3.05
2023-08-27T23:45:34.279Z,3.50
2023-08-27T23:48:01.907Z,2.90
2023-08-27T23:50:29.412Z,3.22
2023-08-27T23:52:56.914Z,3.60
2023-08-27T23:55:24.373Z,3.70
2023-08-27T23:57:51.973Z,3.60
